METAR

Aeronautical MET Report METAR

METAR description (Slovak)

16.02.2020 - 18:30 UTC

METAR LZIB 161830Z 11012KT CAVOK 08/02 Q1023 WS ALL RWY NOSIG=
METAR LZKZ 161830Z 19007KT CAVOK 04/01 Q1027=
METAR LZPP 161830Z 13014KT CAVOK 08/02 Q1024=
METAR LZSL 161830Z 34003KT 310V040 9999 SCT028 05/01 Q1027=
METAR LZTT 161830Z 25015KT CAVOK 04/M04 Q1023=
METAR LZZI 161830Z VRB01KT CAVOK 08/M01 Q1023=

16.02.2020 - 18:00 UTC

METAR LZIB 161800Z 11011KT CAVOK 08/02 Q1023 WS ALL RWY NOSIG=
METAR LZKZ 161800Z 19009KT CAVOK 04/01 Q1027=
METAR LZPP 161800Z 13014KT CAVOK 08/01 Q1024=
METAR LZSL 161800Z VRB01KT 9999 BKN029 05/01 Q1027=
METAR LZTT 161800Z 25011KT CAVOK 04/M04 Q1023=
METAR LZZI 161800Z 23010KT 190V250 CAVOK 08/M00 Q1023=

16.02.2020 - 18:00 UTC

METAR LZMC 161800Z 19012G22KT CAVOK 09/01 Q1022=
METAR LZPW 161800Z 16018G28KT 9999 SCT030 BKN200 06/01
Q1026=

 

 

skok na menu ↑


skok na začiatok stránky ↑